sensor_id;sensor_type;location;lat;lon;timestamp;pressure;altitude;pressure_sealevel;temperature
70389;BMP280;58659;49.050;8.530;2022-10-17T00:01:50;100219.38;;;15.08
70389;BMP280;58659;49.050;8.530;2022-10-17T00:04:16;100223.91;;;15.04
70389;BMP280;58659;49.050;8.530;2022-10-17T00:06:41;100230.66;;;15.08
70389;BMP280;58659;49.050;8.530;2022-10-17T00:09:06;100234.81;;;15.13
70389;BMP280;58659;49.050;8.530;2022-10-17T00:11:31;100240.09;;;15.09
70389;BMP280;58659;49.050;8.530;2022-10-17T00:13:56;100237.81;;;15.08
70389;BMP280;58659;49.050;8.530;2022-10-17T00:16:32;100247.94;;;15.06
70389;BMP280;58659;49.050;8.530;2022-10-17T00:18:58;100247.94;;;15.06
70389;BMP280;58659;49.050;8.530;2022-10-17T00:21:24;100258.47;;;15.06
70389;BMP280;58659;49.050;8.530;2022-10-17T00:23:50;100253.19;;;15.06
70389;BMP280;58659;49.050;8.530;2022-10-17T00:26:16;100266.78;;;15.15
70389;BMP280;58659;49.050;8.530;2022-10-17T00:28:41;100262.28;;;15.15
70389;BMP280;58659;49.050;8.530;2022-10-17T00:31:09;100266.75;;;15.11
70389;BMP280;58659;49.050;8.530;2022-10-17T00:33:34;100271.25;;;15.11
70389;BMP280;58659;49.050;8.530;2022-10-17T00:38:28;100276.13;;;15.02
70389;BMP280;58659;49.050;8.530;2022-10-17T00:40:53;100271.97;;;15.01
70389;BMP280;58659;49.050;8.530;2022-10-17T00:43:18;100274.19;;;14.95
70389;BMP280;58659;49.050;8.530;2022-10-17T00:45:43;100260.28;;;14.91
70389;BMP280;58659;49.050;8.530;2022-10-17T00:48:09;100279.94;;;14.53
70389;BMP280;58659;49.050;8.530;2022-10-17T00:50:35;100260.16;;;14.15
70389;BMP280;58659;49.050;8.530;2022-10-17T00:53:02;100237.31;;;13.86
70389;BMP280;58659;49.050;8.530;2022-10-17T00:55:32;100203.09;;;13.76
70389;BMP280;58659;49.050;8.530;2022-10-17T00:57:59;100132.59;;;13.78
70389;BMP280;58659;49.050;8.530;2022-10-17T01:00:24;100117.25;;;13.87
70389;BMP280;58659;49.050;8.530;2022-10-17T01:02:50;100124.16;;;14.05
70389;BMP280;58659;49.050;8.530;2022-10-17T01:05:16;100146.44;;;14.22
70389;BMP280;58659;49.050;8.530;2022-10-17T01:07:42;100170.13;;;14.29
70389;BMP280;58659;49.050;8.530;2022-10-17T01:10:08;100185.94;;;14.36
70389;BMP280;58659;49.050;8.530;2022-10-17T01:13:37;100195.63;;;14.29
70389;BMP280;58659;49.050;8.530;2022-10-17T01:18:22;100162.25;;;13.82
70389;BMP280;58659;49.050;8.530;2022-10-17T01:28:50;100174.25;;;14.27
70389;BMP280;58659;49.050;8.530;2022-10-17T01:31:44;100178.41;;;14.31
70389;BMP280;58659;49.050;8.530;2022-10-17T01:34:09;100176.13;;;14.30
70389;BMP280;58659;49.050;8.530;2022-10-17T01:36:46;100186.22;;;14.24
70389;BMP280;58659;49.050;8.530;2022-10-17T01:39:20;100180.28;;;14.27
70389;BMP280;58659;49.050;8.530;2022-10-17T01:46:45;100200.25;;;14.39
70389;BMP280;58659;49.050;8.530;2022-10-17T01:49:13;100220.59;;;14.45
70389;BMP280;58659;49.050;8.530;2022-10-17T01:51:45;100232.97;;;14.48
70389;BMP280;58659;49.050;8.530;2022-10-17T01:54:20;100243.88;;;14.50
70389;BMP280;58659;49.050;8.530;2022-10-17T01:56:47;100239.34;;;14.47
70389;BMP280;58659;49.050;8.530;2022-10-17T01:59:21;100237.06;;;14.42
70389;BMP280;58659;49.050;8.530;2022-10-17T02:01:48;100240.09;;;14.44
70389;BMP280;58659;49.050;8.530;2022-10-17T02:04:14;100244.25;;;14.49
70389;BMP280;58659;49.050;8.530;2022-10-17T02:06:40;100259.28;;;14.52
70389;BMP280;58659;49.050;8.530;2022-10-17T02:09:21;100260.00;;;14.49
70389;BMP280;58659;49.050;8.530;2022-10-17T02:11:58;100262.22;;;14.43
70389;BMP280;58659;49.050;8.530;2022-10-17T02:14:31;100251.31;;;14.41
70389;BMP280;58659;49.050;8.530;2022-10-17T02:26:59;99912.88;;;11.54
70389;BMP280;58659;49.050;8.530;2022-10-17T02:29:29;100217.16;;;13.24
70389;BMP280;58659;49.050;8.530;2022-10-17T02:31:57;100204.84;;;12.98
70389;BMP280;58659;49.050;8.530;2022-10-17T02:34:25;100164.81;;;12.71
70389;BMP280;58659;49.050;8.530;2022-10-17T02:36:52;100123.50;;;12.65
70389;BMP280;58659;49.050;8.530;2022-10-17T02:39:19;100079.38;;;12.67
70389;BMP280;58659;49.050;8.530;2022-10-17T02:41:46;100061.41;;;12.69
70389;BMP280;58659;49.050;8.530;2022-10-17T02:44:12;100050.03;;;12.57
70389;BMP280;58659;49.050;8.530;2022-10-17T02:46:38;100040.06;;;12.37
70389;BMP280;58659;49.050;8.530;2022-10-17T02:49:06;100031.75;;;12.31
70389;BMP280;58659;49.050;8.530;2022-10-17T02:54:36;99953.47;;;13.00
70389;BMP280;58659;49.050;8.530;2022-10-17T02:57:11;99953.38;;;13.33
70389;BMP280;58659;49.050;8.530;2022-10-17T02:59:38;99996.25;;;13.51
70389;BMP280;58659;49.050;8.530;2022-10-17T03:02:05;100039.41;;;13.57
70389;BMP280;58659;49.050;8.530;2022-10-17T03:04:31;100064.56;;;13.58
70389;BMP280;58659;49.050;8.530;2022-10-17T03:06:56;100085.22;;;13.60
70389;BMP280;58659;49.050;8.530;2022-10-17T03:09:21;100084.78;;;13.58
70389;BMP280;58659;49.050;8.530;2022-10-17T03:11:46;100098.25;;;13.56
70389;BMP280;58659;49.050;8.530;2022-10-17T03:14:12;100097.56;;;13.63
70389;BMP280;58659;49.050;8.530;2022-10-17T03:16:37;100108.84;;;13.63
70389;BMP280;58659;49.050;8.530;2022-10-17T03:19:02;100108.44;;;13.61
70389;BMP280;58659;49.050;8.530;2022-10-17T03:21:27;100124.16;;;13.58
70389;BMP280;58659;49.050;8.530;2022-10-17T03:23:53;100114.00;;;13.53
70389;BMP280;58659;49.050;8.530;2022-10-17T03:26:18;100116.59;;;13.49
70389;BMP280;58659;49.050;8.530;2022-10-17T03:28:43;100109.44;;;13.46
70389;BMP280;58659;49.050;8.530;2022-10-17T03:31:09;100122.44;;;13.36
70389;BMP280;58659;49.050;8.530;2022-10-17T03:33:35;100150.28;;;13.07
70389;BMP280;58659;49.050;8.530;2022-10-17T03:36:03;100152.63;;;12.86
70389;BMP280;58659;49.050;8.530;2022-10-17T03:38:29;100160.91;;;12.62
70389;BMP280;58659;49.050;8.530;2022-10-17T03:40:54;100118.38;;;12.45
70389;BMP280;58659;49.050;8.530;2022-10-17T03:43:20;100068.88;;;12.37
70389;BMP280;58659;49.050;8.530;2022-10-17T03:45:45;100030.66;;;12.36
70389;BMP280;58659;49.050;8.530;2022-10-17T03:48:10;100054.81;;;12.22
70389;BMP280;58659;49.050;8.530;2022-10-17T03:50:35;100083.72;;;12.03
70389;BMP280;58659;49.050;8.530;2022-10-17T03:53:00;100096.59;;;11.89
70389;BMP280;58659;49.050;8.530;2022-10-17T03:55:26;100076.75;;;11.88
70389;BMP280;58659;49.050;8.530;2022-10-17T03:57:51;100054.34;;;11.90
70389;BMP280;58659;49.050;8.530;2022-10-17T04:00:16;100001.66;;;12.18
70389;BMP280;58659;49.050;8.530;2022-10-17T04:02:41;99984.34;;;12.43
70389;BMP280;58659;49.050;8.530;2022-10-17T04:05:08;99965.50;;;12.64
70389;BMP280;58659;49.050;8.530;2022-10-17T04:07:33;99972.59;;;12.60
70389;BMP280;58659;49.050;8.530;2022-10-17T04:10:01;100007.56;;;12.41
70389;BMP280;58659;49.050;8.530;2022-10-17T04:12:26;100016.03;;;12.31
70389;BMP280;58659;49.050;8.530;2022-10-17T04:14:51;100003.31;;;12.33
70389;BMP280;58659;49.050;8.530;2022-10-17T04:17:16;99991.47;;;12.43
70389;BMP280;58659;49.050;8.530;2022-10-17T04:19:41;99996.34;;;12.44
70389;BMP280;58659;49.050;8.530;2022-10-17T04:22:07;100001.81;;;12.32
70389;BMP280;58659;49.050;8.530;2022-10-17T04:24:32;99999.84;;;12.26
70389;BMP280;58659;49.050;8.530;2022-10-17T04:26:57;100006.16;;;12.21
70389;BMP280;58659;49.050;8.530;2022-10-17T04:29:23;100018.66;;;12.05
70389;BMP280;58659;49.050;8.530;2022-10-17T04:31:49;100022.94;;;11.90
70389;BMP280;58659;49.050;8.530;2022-10-17T04:34:16;100022.78;;;11.80
70389;BMP280;58659;49.050;8.530;2022-10-17T04:36:41;100012.41;;;11.87
70389;BMP280;58659;49.050;8.530;2022-10-17T04:39:06;99992.69;;;11.93
70389;BMP280;58659;49.050;8.530;2022-10-17T04:41:31;99994.81;;;11.84
70389;BMP280;58659;49.050;8.530;2022-10-17T04:43:57;99992.75;;;11.70
70389;BMP280;58659;49.050;8.530;2022-10-17T04:46:22;100012.03;;;11.62
70389;BMP280;58659;49.050;8.530;2022-10-17T04:48:47;100032.88;;;11.55
70389;BMP280;58659;49.050;8.530;2022-10-17T04:51:13;100043.25;;;11.51
70389;BMP280;58659;49.050;8.530;2022-10-17T04:53:39;100049.19;;;11.48
70389;BMP280;58659;49.050;8.530;2022-10-17T04:56:09;100034.97;;;11.46
70389;BMP280;58659;49.050;8.530;2022-10-17T05:01:03;99636.13;;;9.21
70389;BMP280;58659;49.050;8.530;2022-10-17T05:05:53;99662.06;;;10.63
70389;BMP280;58659;49.050;8.530;2022-10-17T05:08:18;99596.63;;;10.52
70389;BMP280;58659;49.050;8.530;2022-10-17T05:10:44;99641.94;;;10.67
70389;BMP280;58659;49.050;8.530;2022-10-17T05:15:35;99679.16;;;10.83
70389;BMP280;58659;49.050;8.530;2022-10-17T05:18:01;99764.88;;;11.26
70389;BMP280;58659;49.050;8.530;2022-10-17T05:20:26;99807.72;;;11.44
70389;BMP280;58659;49.050;8.530;2022-10-17T05:22:52;99790.66;;;11.24
70389;BMP280;58659;49.050;8.530;2022-10-17T05:25:17;99802.06;;;11.42
70389;BMP280;58659;49.050;8.530;2022-10-17T05:27:43;99793.56;;;11.19
70389;BMP280;58659;49.050;8.530;2022-10-17T05:30:08;99860.13;;;11.51
70389;BMP280;58659;49.050;8.530;2022-10-17T05:32:34;99847.88;;;11.29
70389;BMP280;58659;49.050;8.530;2022-10-17T05:34:59;99839.38;;;11.13
70389;BMP280;58659;49.050;8.530;2022-10-17T05:37:24;99962.34;;;11.88
70389;BMP280;58659;49.050;8.530;2022-10-17T05:39:49;99836.16;;;10.97
70389;BMP280;58659;49.050;8.530;2022-10-17T05:42:15;99908.53;;;11.38
70389;BMP280;58659;49.050;8.530;2022-10-17T05:44:40;99817.28;;;10.84
70389;BMP280;58659;49.050;8.530;2022-10-17T05:49:30;99846.84;;;11.11
70389;BMP280;58659;49.050;8.530;2022-10-17T05:51:55;99759.00;;;10.58
70389;BMP280;58659;49.050;8.530;2022-10-17T06:11:16;99804.56;;;10.60
70389;BMP280;58659;49.050;8.530;2022-10-17T06:37:54;99782.91;;;10.60
70389;BMP280;58659;49.050;8.530;2022-10-17T06:40:19;99693.63;;;10.05
70389;BMP280;58659;49.050;8.530;2022-10-17T07:19:03;100059.28;;;12.22
70389;BMP280;58659;49.050;8.530;2022-10-17T07:21:28;100105.63;;;12.44
70389;BMP280;58659;49.050;8.530;2022-10-17T07:23:54;100089.91;;;12.44
70389;BMP280;58659;49.050;8.530;2022-10-17T07:26:19;100072.09;;;12.27
70389;BMP280;58659;49.050;8.530;2022-10-17T07:28:49;100145.28;;;12.69
70389;BMP280;58659;49.050;8.530;2022-10-17T07:31:16;100164.47;;;12.73
70389;BMP280;58659;49.050;8.530;2022-10-17T07:33:42;100152.13;;;12.77
70389;BMP280;58659;49.050;8.530;2022-10-17T07:36:07;100154.25;;;12.68
70389;BMP280;58659;49.050;8.530;2022-10-17T07:38:32;100170.28;;;12.89
70389;BMP280;58659;49.050;8.530;2022-10-17T07:40:59;100175.16;;;12.90
70389;BMP280;58659;49.050;8.530;2022-10-17T07:43:24;100204.31;;;13.15
70389;BMP280;58659;49.050;8.530;2022-10-17T07:45:50;100176.75;;;12.95
70389;BMP280;58659;49.050;8.530;2022-10-17T07:48:15;100142.06;;;13.12
70389;BMP280;58659;49.050;8.530;2022-10-17T07:50:41;100038.69;;;12.46
70389;BMP280;58659;49.050;8.530;2022-10-17T07:53:06;100129.22;;;13.03
70389;BMP280;58659;49.050;8.530;2022-10-17T07:55:31;100057.47;;;12.52
70389;BMP280;58659;49.050;8.530;2022-10-17T07:57:57;100157.56;;;12.91
70389;BMP280;58659;49.050;8.530;2022-10-17T08:00:24;100206.84;;;13.38
70389;BMP280;58659;49.050;8.530;2022-10-17T08:02:49;100200.22;;;13.47
70389;BMP280;58659;49.050;8.530;2022-10-17T08:05:15;100226.22;;;13.30
70389;BMP280;58659;49.050;8.530;2022-10-17T08:07:40;100482.47;;;14.97
70389;BMP280;58659;49.050;8.530;2022-10-17T08:10:06;100445.56;;;14.90
70389;BMP280;58659;49.050;8.530;2022-10-17T08:12:31;100440.16;;;14.72
70389;BMP280;58659;49.050;8.530;2022-10-17T08:14:58;100437.00;;;14.56
70389;BMP280;58659;49.050;8.530;2022-10-17T08:17:23;100403.53;;;14.53
70389;BMP280;58659;49.050;8.530;2022-10-17T08:19:48;100378.75;;;14.58
70389;BMP280;58659;49.050;8.530;2022-10-17T08:22:14;100367.94;;;14.63
70389;BMP280;58659;49.050;8.530;2022-10-17T08:24:39;100344.63;;;14.61
70389;BMP280;58659;49.050;8.530;2022-10-17T08:27:06;100326.59;;;14.63
70389;BMP280;58659;49.050;8.530;2022-10-17T08:29:35;100311.63;;;14.67
70389;BMP280;58659;49.050;8.530;2022-10-17T08:32:00;100286.09;;;14.71
70389;BMP280;58659;49.050;8.530;2022-10-17T08:34:25;100284.69;;;14.85
70389;BMP280;58659;49.050;8.530;2022-10-17T08:36:51;100267.78;;;14.86
70389;BMP280;58659;49.050;8.530;2022-10-17T08:39:16;100281.69;;;14.93
70389;BMP280;58659;49.050;8.530;2022-10-17T08:47:09;100308.28;;;15.53
70389;BMP280;58659;49.050;8.530;2022-10-17T08:52:05;100388.22;;;16.07
70389;BMP280;58659;49.050;8.530;2022-10-17T08:54:36;100418.00;;;16.35
70389;BMP280;58659;49.050;8.530;2022-10-17T08:57:03;100453.09;;;16.57
70389;BMP280;58659;49.050;8.530;2022-10-17T08:59:28;100487.03;;;16.76
70389;BMP280;58659;49.050;8.530;2022-10-17T09:02:00;100507.81;;;17.17
70389;BMP280;58659;49.050;8.530;2022-10-17T09:09:56;100562.03;;;17.78
70389;BMP280;58659;49.050;8.530;2022-10-17T09:12:28;100577.84;;;17.92
70389;BMP280;58659;49.050;8.530;2022-10-17T09:15:00;100577.25;;;18.43
70389;BMP280;58659;49.050;8.530;2022-10-17T09:17:35;100596.44;;;18.57
70389;BMP280;58659;49.050;8.530;2022-10-17T09:22:29;100617.09;;;18.80
70389;BMP280;58659;49.050;8.530;2022-10-17T09:25:02;100626.00;;;19.07
70389;BMP280;58659;49.050;8.530;2022-10-17T09:32:35;100657.91;;;18.89
70389;BMP280;58659;49.050;8.530;2022-10-17T09:35:01;100665.56;;;18.70
70389;BMP280;58659;49.050;8.530;2022-10-17T09:37:28;100661.53;;;18.55
70389;BMP280;58659;49.050;8.530;2022-10-17T09:39:54;100661.97;;;18.32
70389;BMP280;58659;49.050;8.530;2022-10-17T09:42:19;100652.22;;;18.11
70389;BMP280;58659;49.050;8.530;2022-10-17T09:49:51;100639.00;;;17.97
70389;BMP280;58659;49.050;8.530;2022-10-17T09:52:18;100642.78;;;17.96
70389;BMP280;58659;49.050;8.530;2022-10-17T09:54:51;100636.38;;;17.90
70389;BMP280;58659;49.050;8.530;2022-10-17T09:57:17;100633.72;;;17.90
70389;BMP280;58659;49.050;8.530;2022-10-17T10:00:03;100625.78;;;18.01
70389;BMP280;58659;49.050;8.530;2022-10-17T10:02:29;100638.66;;;17.95
70389;BMP280;58659;49.050;8.530;2022-10-17T10:07:26;100652.94;;;18.22
70389;BMP280;58659;49.050;8.530;2022-10-17T10:09:52;100661.16;;;18.39
70389;BMP280;58659;49.050;8.530;2022-10-17T10:12:19;100655.88;;;18.46
70389;BMP280;58659;49.050;8.530;2022-10-17T10:14:45;100661.16;;;18.46
70389;BMP280;58659;49.050;8.530;2022-10-17T10:17:27;100654.31;;;18.52
70389;BMP280;58659;49.050;8.530;2022-10-17T10:19:53;100661.84;;;18.57
70389;BMP280;58659;49.050;8.530;2022-10-17T10:22:19;100668.28;;;18.59
70389;BMP280;58659;49.050;8.530;2022-10-17T10:24:44;100659.59;;;18.59
70389;BMP280;58659;49.050;8.530;2022-10-17T10:27:13;100672.06;;;18.58
70389;BMP280;58659;49.050;8.530;2022-10-17T10:29:40;100666.28;;;18.81
70389;BMP280;58659;49.050;8.530;2022-10-17T10:32:06;100679.03;;;19.00
70389;BMP280;58659;49.050;8.530;2022-10-17T10:34:33;100682.63;;;19.24
70389;BMP280;58659;49.050;8.530;2022-10-17T10:37:01;100686.47;;;19.63
70389;BMP280;58659;49.050;8.530;2022-10-17T10:39:31;100694.56;;;20.24
70389;BMP280;58659;49.050;8.530;2022-10-17T10:41:58;100692.91;;;20.37
70389;BMP280;58659;49.050;8.530;2022-10-17T10:44:24;100696.25;;;20.41
70389;BMP280;58659;49.050;8.530;2022-10-17T10:49:51;100700.88;;;20.37
70389;BMP280;58659;49.050;8.530;2022-10-17T10:52:23;100698.31;;;20.30
70389;BMP280;58659;49.050;8.530;2022-10-17T10:55:33;100694.13;;;20.29
70389;BMP280;58659;49.050;8.530;2022-10-17T10:57:37;100695.03;;;20.49
70389;BMP280;58659;49.050;8.530;2022-10-17T11:00:05;100692.09;;;20.70
70389;BMP280;58659;49.050;8.530;2022-10-17T11:05:41;100700.28;;;21.95
70389;BMP280;58659;49.050;8.530;2022-10-17T11:08:17;100699.47;;;23.02
70389;BMP280;58659;49.050;8.530;2022-10-17T11:13:14;100705.13;;;24.44
70389;BMP280;58659;49.050;8.530;2022-10-17T11:20:45;100722.75;;;25.48
70389;BMP280;58659;49.050;8.530;2022-10-17T11:23:16;100719.72;;;25.89
70389;BMP280;58659;49.050;8.530;2022-10-17T11:25:46;100721.31;;;26.08
70389;BMP280;58659;49.050;8.530;2022-10-17T11:28:14;100727.72;;;26.11
70389;BMP280;58659;49.050;8.530;2022-10-17T11:33:08;100728.97;;;27.04
70389;BMP280;58659;49.050;8.530;2022-10-17T11:35:38;100742.38;;;26.95
70389;BMP280;58659;49.050;8.530;2022-10-17T11:38:18;100742.66;;;26.97
70389;BMP280;58659;49.050;8.530;2022-10-17T11:40:45;100743.91;;;27.14
70389;BMP280;58659;49.050;8.530;2022-10-17T11:45:53;100741.63;;;27.30
70389;BMP280;58659;49.050;8.530;2022-10-17T11:48:20;100733.34;;;27.70
70389;BMP280;58659;49.050;8.530;2022-10-17T11:50:59;100728.00;;;27.52
70389;BMP280;58659;49.050;8.530;2022-10-17T11:53:30;100740.56;;;27.28
70389;BMP280;58659;49.050;8.530;2022-10-17T11:55:58;100732.81;;;27.21
70389;BMP280;58659;49.050;8.530;2022-10-17T12:13:46;100726.91;;;27.26
70389;BMP280;58659;49.050;8.530;2022-10-17T12:18:43;100727.78;;;27.14
70389;BMP280;58659;49.050;8.530;2022-10-17T12:21:08;100728.22;;;26.85
70389;BMP280;58659;49.050;8.530;2022-10-17T12:23:34;100729.25;;;26.97
70389;BMP280;58659;49.050;8.530;2022-10-17T12:26:01;100730.91;;;27.12
70389;BMP280;58659;49.050;8.530;2022-10-17T12:30:56;100716.00;;;26.26
70389;BMP280;58659;49.050;8.530;2022-10-17T12:33:32;100719.81;;;26.07
70389;BMP280;58659;49.050;8.530;2022-10-17T12:38:39;100709.25;;;26.61
70389;BMP280;58659;49.050;8.530;2022-10-17T12:41:04;100708.81;;;26.63
70389;BMP280;58659;49.050;8.530;2022-10-17T12:43:32;100705.81;;;26.52
70389;BMP280;58659;49.050;8.530;2022-10-17T12:46:02;100706.00;;;27.03
70389;BMP280;58659;49.050;8.530;2022-10-17T12:56:56;100718.22;;;27.04
70389;BMP280;58659;49.050;8.530;2022-10-17T12:58:56;100711.78;;;26.74
70389;BMP280;58659;49.050;8.530;2022-10-17T13:01:26;100717.03;;;26.96
70389;BMP280;58659;49.050;8.530;2022-10-17T13:03:52;100720.03;;;27.07
70389;BMP280;58659;49.050;8.530;2022-10-17T13:06:23;100709.72;;;27.41
70389;BMP280;58659;49.050;8.530;2022-10-17T13:08:53;100717.22;;;27.70
70389;BMP280;58659;49.050;8.530;2022-10-17T13:11:24;100722.03;;;27.66
70389;BMP280;58659;49.050;8.530;2022-10-17T13:13:51;100709.63;;;27.68
70389;BMP280;58659;49.050;8.530;2022-10-17T13:16:27;100710.44;;;27.51
70389;BMP280;58659;49.050;8.530;2022-10-17T13:18:53;100706.13;;;27.53
70389;BMP280;58659;49.050;8.530;2022-10-17T13:21:18;100712.69;;;27.94
70389;BMP280;58659;49.050;8.530;2022-10-17T13:23:44;100712.25;;;28.19
70389;BMP280;58659;49.050;8.530;2022-10-17T13:26:17;100704.31;;;28.25
70389;BMP280;58659;49.050;8.530;2022-10-17T13:29:09;100712.25;;;28.19
70389;BMP280;58659;49.050;8.530;2022-10-17T13:31:32;100710.50;;;27.84
70389;BMP280;58659;49.050;8.530;2022-10-17T13:33:59;100706.44;;;27.88
70389;BMP280;58659;49.050;8.530;2022-10-17T13:36:24;100706.06;;;28.04
70389;BMP280;58659;49.050;8.530;2022-10-17T13:38:50;100706.78;;;28.37
70389;BMP280;58659;49.050;8.530;2022-10-17T13:41:15;100704.66;;;28.41
70389;BMP280;58659;49.050;8.530;2022-10-17T13:43:42;100709.19;;;28.97
70389;BMP280;58659;49.050;8.530;2022-10-17T13:46:07;100713.97;;;28.79
70389;BMP280;58659;49.050;8.530;2022-10-17T13:48:40;100716.19;;;28.42
70389;BMP280;58659;49.050;8.530;2022-10-17T13:51:07;100726.00;;;28.69
70389;BMP280;58659;49.050;8.530;2022-10-17T13:53:33;100726.38;;;28.76
70389;BMP280;58659;49.050;8.530;2022-10-17T13:56:14;100727.09;;;29.15
70389;BMP280;58659;49.050;8.530;2022-10-17T13:58:50;100729.44;;;28.45
70389;BMP280;58659;49.050;8.530;2022-10-17T14:01:16;100727.91;;;28.68
70389;BMP280;58659;49.050;8.530;2022-10-17T14:03:43;100732.41;;;28.71
70389;BMP280;58659;49.050;8.530;2022-10-17T14:06:13;100730.25;;;28.99
70389;BMP280;58659;49.050;8.530;2022-10-17T14:08:39;100722.19;;;28.04
70389;BMP280;58659;49.050;8.530;2022-10-17T14:11:14;100722.34;;;28.33
70389;BMP280;58659;49.050;8.530;2022-10-17T14:13:41;100728.78;;;28.27
70389;BMP280;58659;49.050;8.530;2022-10-17T14:16:08;100731.50;;;27.94
70389;BMP280;58659;49.050;8.530;2022-10-17T14:18:35;100726.09;;;28.50
70389;BMP280;58659;49.050;8.530;2022-10-17T14:21:00;100720.59;;;27.89
70389;BMP280;58659;49.050;8.530;2022-10-17T14:26:02;100722.97;;;27.54
70389;BMP280;58659;49.050;8.530;2022-10-17T14:28:27;100734.03;;;27.29
70389;BMP280;58659;49.050;8.530;2022-10-17T14:30:53;100718.78;;;27.95
70389;BMP280;58659;49.050;8.530;2022-10-17T14:33:42;100725.78;;;28.01
70389;BMP280;58659;49.050;8.530;2022-10-17T14:36:04;100726.34;;;28.14
70389;BMP280;58659;49.050;8.530;2022-10-17T14:38:29;100725.59;;;27.72
70389;BMP280;58659;49.050;8.530;2022-10-17T14:43:24;100734.91;;;27.44
70389;BMP280;58659;49.050;8.530;2022-10-17T14:45:50;100719.72;;;27.05
70389;BMP280;58659;49.050;8.530;2022-10-17T14:48:16;100713.47;;;27.08
70389;BMP280;58659;49.050;8.530;2022-10-17T14:50:42;100721.06;;;26.91
70389;BMP280;58659;49.050;8.530;2022-10-17T14:53:27;100722.63;;;26.43
70389;BMP280;58659;49.050;8.530;2022-10-17T14:55:55;100722.59;;;25.73
70389;BMP280;58659;49.050;8.530;2022-10-17T14:58:28;100721.94;;;25.25
70389;BMP280;58659;49.050;8.530;2022-10-17T15:00:56;100725.19;;;24.86
70389;BMP280;58659;49.050;8.530;2022-10-17T15:03:22;100722.75;;;24.29
70389;BMP280;58659;49.050;8.530;2022-10-17T15:05:48;100724.69;;;23.74
70389;BMP280;58659;49.050;8.530;2022-10-17T15:08:17;100728.22;;;23.11
70389;BMP280;58659;49.050;8.530;2022-10-17T15:10:43;100729.72;;;22.79
70389;BMP280;58659;49.050;8.530;2022-10-17T15:13:09;100734.28;;;22.43
70389;BMP280;58659;49.050;8.530;2022-10-17T15:15:35;100734.47;;;22.16
70389;BMP280;58659;49.050;8.530;2022-10-17T15:18:00;100735.34;;;21.90
70389;BMP280;58659;49.050;8.530;2022-10-17T15:20:29;100740.13;;;21.79
70389;BMP280;58659;49.050;8.530;2022-10-17T15:22:55;100733.94;;;21.63
70389;BMP280;58659;49.050;8.530;2022-10-17T15:25:21;100730.78;;;21.48
70389;BMP280;58659;49.050;8.530;2022-10-17T15:27:46;100746.91;;;21.34
70389;BMP280;58659;49.050;8.530;2022-10-17T15:30:16;100741.03;;;21.23
70389;BMP280;58659;49.050;8.530;2022-10-17T15:32:42;100737.03;;;21.11
70389;BMP280;58659;49.050;8.530;2022-10-17T15:35:07;100731.53;;;20.99
70389;BMP280;58659;49.050;8.530;2022-10-17T15:37:33;100740.03;;;20.86
70389;BMP280;58659;49.050;8.530;2022-10-17T15:39:58;100736.09;;;20.86
70389;BMP280;58659;49.050;8.530;2022-10-17T15:42:27;73326.13;;;-143.76
70389;BMP280;58659;49.050;8.530;2022-10-17T15:44:53;73326.13;;;-143.76
70389;BMP280;58659;49.050;8.530;2022-10-17T15:47:21;73326.13;;;-143.76
70389;BMP280;58659;49.050;8.530;2022-10-17T15:49:47;73326.13;;;-143.76
70389;BMP280;58659;49.050;8.530;2022-10-17T15:52:12;73326.13;;;-143.76
70389;BMP280;58659;49.050;8.530;2022-10-17T15:54:37;73326.13;;;-143.76
70389;BMP280;58659;49.050;8.530;2022-10-17T15:57:19;73326.13;;;-143.76
70389;BMP280;58659;49.050;8.530;2022-10-17T15:59:45;73326.13;;;-143.76
70389;BMP280;58659;49.050;8.530;2022-10-17T16:02:17;73326.13;;;-143.76
70389;BMP280;58659;49.050;8.530;2022-10-17T16:04:43;73326.13;;;-143.76
70389;BMP280;58659;49.050;8.530;2022-10-17T16:07:08;73326.13;;;-143.76
70389;BMP280;58659;49.050;8.530;2022-10-17T16:09:34;73326.13;;;-143.76
70389;BMP280;58659;49.050;8.530;2022-10-17T16:12:01;73326.13;;;-143.76
70389;BMP280;58659;49.050;8.530;2022-10-17T16:14:27;73326.13;;;-143.76
70389;BMP280;58659;49.050;8.530;2022-10-17T16:16:52;73326.13;;;-143.76
70389;BMP280;58659;49.050;8.530;2022-10-17T16:19:17;73326.13;;;-143.76
70389;BMP280;58659;49.050;8.530;2022-10-17T16:21:42;73326.13;;;-143.76
70389;BMP280;58659;49.050;8.530;2022-10-17T16:24:11;73326.13;;;-143.76
70389;BMP280;58659;49.050;8.530;2022-10-17T16:26:38;73326.13;;;-143.76
70389;BMP280;58659;49.050;8.530;2022-10-17T16:29:03;73326.13;;;-143.76
70389;BMP280;58659;49.050;8.530;2022-10-17T16:31:30;73326.13;;;-143.76
70389;BMP280;58659;49.050;8.530;2022-10-17T16:33:58;73326.13;;;-143.76
70389;BMP280;58659;49.050;8.530;2022-10-17T16:36:23;73326.13;;;-143.76
70389;BMP280;58659;49.050;8.530;2022-10-17T16:38:49;73326.13;;;-143.76
70389;BMP280;58659;49.050;8.530;2022-10-17T16:43:50;73326.13;;;-143.76
70389;BMP280;58659;49.050;8.530;2022-10-17T16:46:15;73326.13;;;-143.76
70389;BMP280;58659;49.050;8.530;2022-10-17T16:48:41;73326.13;;;-143.76
70389;BMP280;58659;49.050;8.530;2022-10-17T16:51:07;73326.13;;;-143.76
70389;BMP280;58659;49.050;8.530;2022-10-17T16:53:32;73326.13;;;-143.76
70389;BMP280;58659;49.050;8.530;2022-10-17T16:56:01;73326.13;;;-143.76
70389;BMP280;58659;49.050;8.530;2022-10-17T16:58:27;73326.13;;;-143.76
70389;BMP280;58659;49.050;8.530;2022-10-17T17:01:02;73326.13;;;-143.76
70389;BMP280;58659;49.050;8.530;2022-10-17T17:03:40;73326.13;;;-143.76
70389;BMP280;58659;49.050;8.530;2022-10-17T17:06:06;73326.13;;;-143.76
70389;BMP280;58659;49.050;8.530;2022-10-17T17:08:32;73326.13;;;-143.76
70389;BMP280;58659;49.050;8.530;2022-10-17T17:10:57;73326.13;;;-143.76
70389;BMP280;58659;49.050;8.530;2022-10-17T17:13:23;73326.13;;;-143.76
70389;BMP280;58659;49.050;8.530;2022-10-17T17:15:49;73326.13;;;-143.76
70389;BMP280;58659;49.050;8.530;2022-10-17T17:18:18;73326.13;;;-143.76
70389;BMP280;58659;49.050;8.530;2022-10-17T17:20:43;73326.13;;;-143.76
70389;BMP280;58659;49.050;8.530;2022-10-17T17:23:08;73326.13;;;-143.76